createdAt,value
2023-03-11T00:00:01.035Z,22.2
2023-03-11T00:05:01.557Z,22.2
2023-03-11T00:10:01.088Z,22.1
2023-03-11T00:15:02.112Z,22.1
2023-03-11T00:20:00.985Z,22.2
2023-03-11T00:25:01.498Z,22.2
2023-03-11T00:30:00.989Z,22.1
2023-03-11T00:35:01.079Z,22.1
2023-03-11T00:40:01.053Z,22.1
2023-03-11T00:45:01.256Z,22.1
2023-03-11T00:50:01.195Z,22.0
2023-03-11T00:55:01.139Z,22.1
2023-03-11T01:00:01.287Z,22.0
2023-03-11T01:05:01.242Z,22.0
2023-03-11T01:10:01.277Z,22.0
2023-03-11T01:15:01.713Z,22.0
2023-03-11T01:20:01.014Z,22.0
2023-03-11T01:25:02.570Z,22.0
2023-03-11T01:30:01.092Z,22.0
2023-03-11T01:35:01.051Z,22.0
2023-03-11T01:40:01.434Z,22.0
2023-03-11T01:45:01.535Z,22.0
2023-03-11T01:50:01.120Z,21.9
2023-03-11T01:55:01.428Z,21.9
2023-03-11T02:00:01.853Z,21.9
2023-03-11T02:05:01.026Z,21.9
2023-03-11T02:10:01.950Z,21.9
2023-03-11T02:15:01.034Z,21.9
2023-03-11T02:20:00.354Z,21.9
2023-03-11T02:25:01.250Z,21.9
2023-03-11T02:30:01.024Z,21.9
2023-03-11T02:35:01.057Z,21.9
2023-03-11T02:40:01.400Z,21.9
2023-03-11T02:45:01.314Z,21.9
2023-03-11T02:50:01.455Z,21.9
2023-03-11T02:55:01.529Z,21.9
2023-03-11T03:00:01.289Z,21.9
2023-03-11T03:05:02.806Z,21.9
2023-03-11T03:10:01.908Z,21.9
2023-03-11T03:15:01.320Z,21.9
2023-03-11T03:20:01.485Z,21.9
2023-03-11T03:25:01.441Z,21.9
2023-03-11T03:30:01.021Z,22.0
2023-03-11T03:35:01.085Z,21.9
2023-03-11T03:40:02.931Z,21.9
2023-03-11T03:45:01.211Z,21.9
2023-03-11T03:50:01.196Z,21.9
2023-03-11T03:55:01.520Z,21.9
2023-03-11T04:00:01.353Z,21.9
2023-03-11T04:05:01.251Z,21.9
2023-03-11T04:10:01.312Z,21.8
2023-03-11T04:15:01.044Z,21.8
2023-03-11T04:20:01.295Z,21.8
2023-03-11T04:25:01.279Z,21.8
2023-03-11T04:30:01.083Z,21.8
2023-03-11T04:35:01.752Z,21.8
2023-03-11T04:40:01.477Z,21.8
2023-03-11T04:45:02.068Z,21.8
2023-03-11T04:50:01.020Z,21.7
2023-03-11T04:55:01.352Z,21.7
2023-03-11T05:00:01.080Z,21.7
2023-03-11T05:05:01.505Z,21.7
2023-03-11T05:10:01.302Z,21.7
2023-03-11T05:15:01.231Z,21.7
2023-03-11T05:20:01.307Z,21.8
2023-03-11T05:25:01.517Z,21.8
2023-03-11T05:30:01.005Z,21.7
2023-03-11T05:35:01.869Z,21.8
2023-03-11T05:40:01.465Z,21.7
2023-03-11T05:45:01.264Z,21.7
2023-03-11T05:50:01.043Z,21.8
2023-03-11T05:55:01.084Z,21.8
2023-03-11T06:00:01.369Z,21.7
2023-03-11T06:05:01.165Z,21.8
2023-03-11T06:10:03.281Z,21.8
2023-03-11T06:15:01.831Z,21.7
2023-03-11T06:20:00.992Z,21.8
2023-03-11T06:25:01.055Z,21.7
2023-03-11T06:30:01.336Z,21.7
2023-03-11T06:35:01.327Z,21.7
2023-03-11T06:40:01.065Z,21.7
2023-03-11T06:45:01.488Z,21.7
2023-03-11T06:50:01.124Z,21.7
2023-03-11T06:55:01.068Z,21.7
2023-03-11T07:00:01.048Z,21.7
2023-03-11T07:05:02.104Z,21.6
2023-03-11T07:10:01.549Z,21.7
2023-03-11T07:15:01.465Z,21.7
2023-03-11T07:20:01.025Z,21.7
2023-03-11T07:25:01.442Z,21.7
2023-03-11T07:30:01.034Z,21.7
2023-03-11T07:35:01.541Z,21.7
2023-03-11T07:40:01.203Z,21.8
2023-03-11T07:45:01.036Z,21.8
2023-03-11T07:55:01.431Z,21.9
2023-03-11T08:00:01.064Z,21.9
2023-03-11T08:05:01.233Z,21.9
2023-03-11T08:10:01.832Z,21.9
2023-03-11T08:15:01.449Z,21.9
2023-03-11T08:20:01.067Z,21.9
2023-03-11T08:25:01.040Z,21.9
2023-03-11T08:30:01.980Z,21.9
2023-03-11T08:35:01.062Z,21.9
2023-03-11T08:40:01.015Z,22.0
2023-03-11T08:45:01.203Z,22.0
2023-03-11T08:50:01.062Z,22.0
2023-03-11T08:55:02.564Z,22.0
2023-03-11T09:00:01.273Z,22.0
2023-03-11T09:05:01.260Z,22.0
2023-03-11T09:10:01.046Z,22.0
2023-03-11T09:15:01.605Z,22.0
2023-03-11T09:20:01.028Z,22.0
2023-03-11T09:25:01.474Z,22.0
2023-03-11T09:30:01.238Z,22.0
2023-03-11T09:35:01.246Z,22.0
2023-03-11T09:40:01.046Z,22.0
2023-03-11T09:45:01.142Z,22.0
2023-03-11T09:50:01.458Z,22.0
2023-03-11T09:55:01.299Z,22.0
2023-03-11T10:00:00.978Z,22.0
2023-03-11T10:05:01.444Z,22.0
2023-03-11T10:10:01.891Z,22.0
2023-03-11T10:15:01.259Z,22.0
2023-03-11T10:20:01.041Z,22.0
2023-03-11T10:25:00.322Z,22.0
2023-03-11T10:30:01.112Z,22.0
2023-03-11T10:35:01.626Z,22.0
2023-03-11T10:40:01.074Z,22.0
2023-03-11T10:45:02.041Z,22.0
2023-03-11T10:50:01.070Z,22.0
2023-03-11T10:55:01.502Z,22.0
2023-03-11T11:00:01.254Z,22.0
2023-03-11T11:05:01.068Z,22.0
2023-03-11T11:10:01.394Z,22.0
2023-03-11T11:15:01.289Z,22.0
2023-03-11T11:20:01.588Z,22.0
2023-03-11T11:25:01.101Z,22.0
2023-03-11T11:30:01.652Z,22.0
2023-03-11T11:35:01.725Z,22.0
2023-03-11T11:40:01.281Z,22.0
2023-03-11T11:45:01.934Z,22.0
2023-03-11T11:50:02.354Z,22.0
2023-03-11T11:55:01.354Z,22.0
2023-03-11T12:00:01.081Z,22.0
2023-03-11T12:05:01.486Z,22.0
2023-03-11T12:10:09.966Z,22.0
2023-03-11T12:15:01.835Z,22.1
2023-03-11T12:20:01.052Z,22.1
2023-03-11T12:25:01.504Z,22.1
2023-03-11T12:30:01.141Z,22.1
2023-03-11T12:35:01.447Z,22.1
2023-03-11T12:40:01.304Z,22.1
2023-03-11T12:45:01.366Z,22.1
2023-03-11T12:50:01.535Z,22.1
2023-03-11T12:55:01.318Z,22.1
2023-03-11T13:00:01.184Z,22.1
2023-03-11T13:05:01.064Z,22.1
2023-03-11T13:10:01.111Z,22.1
2023-03-11T13:15:02.539Z,22.1
2023-03-11T13:20:02.510Z,22.1
2023-03-11T13:25:01.223Z,22.1
2023-03-11T13:30:01.538Z,22.1
2023-03-11T13:35:01.113Z,22.1
2023-03-11T13:40:01.537Z,22.1
2023-03-11T13:45:01.513Z,22.1
2023-03-11T13:50:02.181Z,22.2
2023-03-11T13:55:00.365Z,22.1
2023-03-11T14:00:01.087Z,22.1
2023-03-11T14:05:01.918Z,22.1
2023-03-11T14:10:01.594Z,22.1
2023-03-11T14:15:01.147Z,22.1
2023-03-11T14:20:02.128Z,22.2
2023-03-11T14:25:01.077Z,22.1
2023-03-11T14:30:02.770Z,22.2
2023-03-11T14:35:02.016Z,22.1
2023-03-11T14:40:01.341Z,22.0
2023-03-11T14:45:02.512Z,21.8
2023-03-11T14:50:01.093Z,21.6
2023-03-11T14:55:00.327Z,21.5
2023-03-11T15:00:02.175Z,21.6
2023-03-11T15:05:02.197Z,21.7
2023-03-11T15:10:01.057Z,21.8
2023-03-11T15:15:01.037Z,21.8
2023-03-11T15:20:01.158Z,21.9
2023-03-11T15:25:01.945Z,21.9
2023-03-11T15:30:01.701Z,22.0
2023-03-11T15:35:00.325Z,22.0
2023-03-11T15:40:01.231Z,22.0
2023-03-11T15:45:01.269Z,22.1
2023-03-11T15:50:01.135Z,22.1
2023-03-11T15:55:01.369Z,22.2
2023-03-11T16:00:01.607Z,22.3
2023-03-11T16:05:01.285Z,22.3
2023-03-11T16:10:03.262Z,22.3
2023-03-11T16:15:01.036Z,22.4
2023-03-11T16:20:01.463Z,22.5
2023-03-11T16:25:01.270Z,22.5
2023-03-11T16:30:01.128Z,22.5
2023-03-11T16:35:01.516Z,22.5
2023-03-11T16:40:01.182Z,22.5
2023-03-11T16:45:03.968Z,22.5
2023-03-11T16:50:01.326Z,22.5
2023-03-11T16:55:00.987Z,22.5
2023-03-11T17:00:02.127Z,22.5
2023-03-11T17:05:01.401Z,22.5
2023-03-11T17:10:01.115Z,22.4
2023-03-11T17:15:01.517Z,22.5
2023-03-11T17:20:02.171Z,22.4
2023-03-11T17:25:01.903Z,22.4
2023-03-11T17:30:01.176Z,22.4
2023-03-11T17:35:01.322Z,22.4
2023-03-11T17:40:02.696Z,22.4
2023-03-11T17:45:01.656Z,22.4
2023-03-11T17:50:01.328Z,22.3
2023-03-11T17:55:01.056Z,22.4
2023-03-11T18:00:01.487Z,22.3
2023-03-11T18:05:01.530Z,22.3
2023-03-11T18:10:01.340Z,22.3
2023-03-11T18:15:02.057Z,22.3
2023-03-11T18:20:01.984Z,22.3
2023-03-11T18:25:01.267Z,22.3
2023-03-11T18:30:01.884Z,22.3
2023-03-11T18:35:01.329Z,22.3
2023-03-11T18:40:01.250Z,22.3
2023-03-11T18:45:01.323Z,22.2
2023-03-11T18:50:01.921Z,22.2
2023-03-11T18:55:00.318Z,22.2
2023-03-11T19:00:01.191Z,22.1
2023-03-11T19:05:01.886Z,22.0
2023-03-11T19:10:01.071Z,21.8
2023-03-11T19:15:01.120Z,21.8
2023-03-11T19:20:00.359Z,21.8
2023-03-11T19:25:01.059Z,21.8
2023-03-11T19:35:00.356Z,21.8
2023-03-11T19:40:01.048Z,21.8
2023-03-11T19:45:02.118Z,21.7
2023-03-11T19:50:02.185Z,21.7
2023-03-11T19:55:01.337Z,21.7
2023-03-11T20:00:01.987Z,21.7
2023-03-11T20:05:01.033Z,21.7
2023-03-11T20:10:01.285Z,21.8
2023-03-11T20:15:01.293Z,21.7
2023-03-11T20:20:01.079Z,21.7
2023-03-11T20:25:01.902Z,21.7
2023-03-11T20:30:01.107Z,21.7
2023-03-11T20:35:01.329Z,21.7
2023-03-11T20:40:01.903Z,21.7
2023-03-11T20:45:01.431Z,21.7
2023-03-11T20:50:01.804Z,21.7
2023-03-11T20:55:01.223Z,21.7
2023-03-11T21:00:01.253Z,21.7
2023-03-11T21:05:01.609Z,21.7
2023-03-11T21:10:01.087Z,21.7
2023-03-11T21:15:01.157Z,21.6
2023-03-11T21:20:02.308Z,21.7
2023-03-11T21:25:03.347Z,21.7
2023-03-11T21:30:02.481Z,21.6
2023-03-11T21:35:02.510Z,21.7
2023-03-11T21:40:02.307Z,21.7
2023-03-11T21:45:01.157Z,21.7
2023-03-11T21:50:02.014Z,21.7
2023-03-11T21:55:01.186Z,21.7
2023-03-11T22:00:01.313Z,21.7
2023-03-11T22:05:01.326Z,21.7
2023-03-11T22:10:02.339Z,21.7
2023-03-11T22:15:01.045Z,21.7
2023-03-11T22:20:01.965Z,21.7
2023-03-11T22:35:01.010Z,21.7
2023-03-11T22:40:00.993Z,21.7
2023-03-11T22:45:01.483Z,21.6
2023-03-11T22:50:01.281Z,21.7
2023-03-11T22:55:01.009Z,21.6
2023-03-11T23:00:04.094Z,21.6
2023-03-11T23:05:01.936Z,21.5
2023-03-11T23:10:01.008Z,21.4
2023-03-11T23:15:01.596Z,21.4
2023-03-11T23:20:01.475Z,21.4
2023-03-11T23:25:01.925Z,21.4
2023-03-11T23:30:01.035Z,21.4
2023-03-11T23:35:01.086Z,21.4
2023-03-11T23:40:01.393Z,21.4
2023-03-11T23:45:01.198Z,21.5
2023-03-11T23:50:01.539Z,21.5
2023-03-11T23:55:01.584Z,21.5
